createdAt,value
2018-03-16T00:00:41.717Z,56.40
2018-03-16T00:03:10.150Z,56.40
2018-03-16T00:05:38.717Z,56.40
2018-03-16T00:08:06.623Z,56.40
2018-03-16T00:10:35.645Z,56.30
2018-03-16T00:13:04.519Z,56.40
2018-03-16T00:15:32.414Z,56.90
2018-03-16T00:18:00.707Z,56.30
2018-03-16T00:20:28.571Z,56.40
2018-03-16T00:22:56.569Z,56.40
2018-03-16T00:25:24.447Z,56.50
2018-03-16T00:27:52.701Z,56.40
2018-03-16T00:30:19.815Z,56.40
2018-03-16T00:32:46.925Z,56.40
2018-03-16T00:35:14.032Z,56.40
2018-03-16T00:37:41.129Z,56.40
2018-03-16T00:40:08.625Z,56.40
2018-03-16T00:42:36.512Z,57.60
2018-03-16T00:45:04.686Z,56.90
2018-03-16T00:47:31.808Z,56.40
2018-03-16T00:49:59.025Z,56.40
2018-03-16T00:52:26.926Z,56.90
2018-03-16T00:54:54.434Z,56.40
2018-03-16T00:57:22.317Z,56.40
2018-03-16T00:59:50.562Z,56.40
2018-03-16T01:04:47.213Z,56.90
2018-03-16T01:07:15.121Z,56.90
2018-03-16T01:09:42.613Z,56.40
2018-03-16T01:12:10.862Z,56.40
2018-03-16T01:14:39.096Z,56.40
2018-03-16T01:17:06.994Z,56.40
2018-03-16T01:19:34.532Z,56.40
2018-03-16T01:22:01.643Z,56.40
2018-03-16T01:24:28.755Z,56.40
2018-03-16T01:26:56.627Z,56.40
2018-03-16T01:31:52.490Z,56.30
2018-03-16T01:36:48.394Z,56.40
2018-03-16T01:39:15.526Z,56.40
2018-03-16T01:41:43.021Z,56.40
2018-03-16T01:44:10.919Z,56.40
2018-03-16T01:46:39.166Z,56.40
2018-03-16T01:49:07.437Z,56.40
2018-03-16T01:51:34.578Z,56.40
2018-03-16T01:54:02.605Z,56.40
2018-03-16T01:56:29.714Z,56.30
2018-03-16T01:58:56.832Z,56.30
2018-03-16T02:01:23.946Z,56.30
2018-03-16T02:06:20.231Z,56.30
2018-03-16T02:08:47.342Z,56.30
2018-03-16T02:11:14.846Z,56.30
2018-03-16T02:13:43.112Z,56.30
2018-03-16T02:16:10.237Z,56.20
2018-03-16T02:18:37.393Z,56.30
2018-03-16T02:21:04.850Z,56.30
2018-03-16T02:23:32.713Z,56.30
2018-03-16T02:26:00.982Z,56.30
2018-03-16T02:28:28.090Z,56.30
2018-03-16T02:30:55.250Z,56.30
2018-03-16T02:33:22.376Z,56.30
2018-03-16T02:35:49.510Z,56.30
2018-03-16T02:38:16.632Z,56.30
2018-03-16T02:40:44.532Z,56.30
2018-03-16T02:43:12.394Z,56.30
2018-03-16T02:45:40.296Z,56.30
2018-03-16T02:48:07.521Z,56.30
2018-03-16T02:50:35.423Z,56.80
2018-03-16T02:53:02.784Z,56.30
2018-03-16T02:55:30.687Z,56.30
2018-03-16T02:57:58.180Z,56.30
2018-03-16T03:00:25.331Z,56.30
2018-03-16T03:02:52.458Z,56.40
2018-03-16T03:05:20.706Z,56.30
2018-03-16T03:07:47.831Z,56.30
2018-03-16T03:10:14.925Z,56.30
2018-03-16T03:12:42.822Z,56.30
2018-03-16T03:15:09.924Z,56.30
2018-03-16T03:17:37.509Z,56.30
2018-03-16T03:20:04.618Z,56.30
2018-03-16T03:22:32.514Z,56.80
2018-03-16T03:25:00.377Z,56.90
2018-03-16T03:27:27.511Z,56.30
2018-03-16T03:29:55.391Z,56.30
2018-03-16T03:32:22.527Z,56.30
2018-03-16T03:34:49.649Z,56.30
2018-03-16T03:37:17.550Z,56.80
2018-03-16T03:39:45.054Z,56.30
2018-03-16T03:42:12.177Z,56.30
2018-03-16T03:44:40.818Z,56.30
2018-03-16T03:47:08.715Z,56.30
2018-03-16T03:49:35.822Z,56.30
2018-03-16T03:52:03.201Z,56.30
2018-03-16T03:54:31.833Z,56.30
2018-03-16T03:57:00.128Z,56.30
2018-03-16T03:59:27.228Z,56.30
2018-03-16T04:01:54.716Z,56.30
2018-03-16T04:04:21.832Z,56.30
2018-03-16T04:06:48.929Z,56.30
2018-03-16T04:09:16.077Z,56.30
2018-03-16T04:11:44.690Z,56.30
2018-03-16T04:14:12.548Z,56.30
2018-03-16T04:16:40.046Z,56.30
2018-03-16T04:19:07.173Z,56.30
2018-03-16T04:21:35.064Z,56.30
2018-03-16T04:24:03.299Z,56.30
2018-03-16T04:26:30.400Z,56.30
2018-03-16T04:28:58.286Z,56.70
2018-03-16T04:31:25.409Z,56.30
2018-03-16T04:33:52.905Z,56.30
2018-03-16T04:36:20.000Z,56.20
2018-03-16T04:38:47.861Z,56.70
2018-03-16T04:41:14.980Z,56.30
2018-03-16T04:43:42.845Z,56.30
2018-03-16T04:46:10.719Z,56.30
2018-03-16T04:48:37.892Z,56.30
2018-03-16T04:51:05.187Z,56.30
2018-03-16T04:53:32.673Z,56.30
2018-03-16T04:56:00.548Z,56.30
2018-03-16T04:58:27.654Z,56.20
2018-03-16T05:00:54.769Z,56.20
2018-03-16T05:03:22.642Z,56.20
2018-03-16T05:05:50.894Z,56.20
2018-03-16T05:08:17.999Z,56.20
2018-03-16T05:10:45.124Z,56.20
2018-03-16T05:13:13.384Z,56.70
2018-03-16T05:15:41.265Z,56.70
2018-03-16T05:18:08.778Z,56.20
2018-03-16T05:20:36.640Z,56.20
2018-03-16T05:23:04.991Z,56.20
2018-03-16T05:25:32.480Z,56.20
2018-03-16T05:30:28.773Z,56.20
2018-03-16T05:32:57.391Z,56.20
2018-03-16T05:35:25.296Z,56.20
2018-03-16T05:37:53.543Z,56.20
2018-03-16T05:40:20.691Z,56.20
2018-03-16T05:45:16.568Z,56.30
2018-03-16T05:47:43.693Z,56.20
2018-03-16T05:50:11.212Z,56.30
2018-03-16T05:52:38.325Z,56.30
2018-03-16T05:57:34.197Z,56.40
2018-03-16T06:00:01.306Z,56.30
2018-03-16T06:02:29.173Z,56.40
2018-03-16T06:04:56.269Z,56.40
2018-03-16T06:07:23.378Z,56.40
2018-03-16T06:09:50.486Z,56.40
2018-03-16T06:12:19.098Z,56.30
2018-03-16T06:14:46.606Z,56.40
2018-03-16T06:17:15.241Z,56.40
2018-03-16T06:22:11.124Z,56.40
2018-03-16T06:24:38.616Z,56.60
2018-03-16T06:27:06.909Z,56.60
2018-03-16T06:29:34.787Z,57.00
2018-03-16T06:32:03.212Z,57.10
2018-03-16T06:34:30.333Z,56.60
2018-03-16T06:36:58.234Z,57.20
2018-03-16T06:39:25.741Z,56.70
2018-03-16T06:41:52.890Z,56.70
2018-03-16T06:44:20.753Z,56.70
2018-03-16T06:46:48.627Z,56.70
2018-03-16T06:49:15.739Z,56.70
2018-03-16T06:51:43.596Z,56.70
2018-03-16T06:54:10.703Z,56.70
2018-03-16T06:56:38.950Z,56.70
2018-03-16T06:59:06.845Z,56.70
2018-03-16T07:04:03.073Z,56.70
2018-03-16T07:06:30.197Z,56.60
2018-03-16T07:08:58.797Z,56.60
2018-03-16T07:11:27.056Z,56.70
2018-03-16T07:13:54.195Z,56.60
2018-03-16T07:16:21.302Z,56.60
2018-03-16T07:18:48.835Z,56.60
2018-03-16T07:21:16.710Z,56.60
2018-03-16T07:23:44.257Z,56.60
2018-03-16T07:26:11.371Z,56.60
2018-03-16T07:28:38.901Z,56.60
2018-03-16T07:31:06.004Z,56.60
2018-03-16T07:33:33.137Z,56.60
2018-03-16T07:36:00.248Z,56.60
2018-03-16T07:38:28.123Z,57.10
2018-03-16T07:40:55.220Z,56.60
2018-03-16T07:45:57.087Z,56.50
2018-03-16T07:48:25.702Z,56.50
2018-03-16T07:50:55.118Z,56.50
2018-03-16T07:53:23.009Z,56.50
2018-03-16T07:55:50.900Z,56.50
2018-03-16T07:58:18.461Z,56.40
2018-03-16T08:00:45.598Z,56.50
2018-03-16T08:03:13.475Z,57.00
2018-03-16T08:05:40.650Z,56.40
2018-03-16T08:08:08.856Z,56.40
2018-03-16T08:13:04.781Z,56.40
2018-03-16T08:15:33.055Z,56.40
2018-03-16T08:18:00.153Z,56.40
2018-03-16T08:20:28.036Z,56.80
2018-03-16T08:22:56.014Z,56.80
2018-03-16T08:25:23.933Z,56.80
2018-03-16T08:32:48.590Z,56.30
2018-03-16T08:35:15.737Z,56.30
2018-03-16T08:37:42.859Z,56.30
2018-03-16T08:45:07.885Z,56.40
2018-03-16T08:47:35.020Z,56.40
2018-03-16T08:50:03.244Z,56.40
2018-03-16T08:52:30.387Z,56.30
2018-03-16T08:54:57.498Z,56.30
2018-03-16T08:57:25.771Z,56.30
2018-03-16T08:59:52.868Z,56.30
2018-03-16T09:02:20.753Z,56.30
2018-03-16T09:04:48.626Z,56.80
2018-03-16T09:07:16.898Z,56.30
2018-03-16T09:09:44.246Z,56.30
2018-03-16T09:12:11.751Z,56.30
2018-03-16T09:14:38.901Z,56.30
2018-03-16T09:17:06.039Z,56.30
2018-03-16T09:19:33.147Z,56.20
2018-03-16T09:22:01.805Z,56.20
2018-03-16T09:24:29.683Z,56.20
2018-03-16T09:26:56.822Z,56.20
2018-03-16T09:29:23.950Z,56.20
2018-03-16T09:31:51.816Z,56.70
2018-03-16T09:34:18.993Z,56.10
2018-03-16T09:36:47.614Z,56.20
2018-03-16T09:39:15.505Z,56.10
2018-03-16T09:41:43.740Z,56.20
2018-03-16T09:44:10.851Z,56.20
2018-03-16T09:46:38.007Z,56.10
2018-03-16T09:49:05.529Z,56.10
2018-03-16T09:51:33.427Z,56.10
2018-03-16T09:54:01.763Z,56.10
2018-03-16T09:56:28.873Z,56.10
2018-03-16T09:58:57.115Z,56.80
2018-03-16T10:01:24.226Z,56.80
2018-03-16T10:03:51.730Z,57.20
2018-03-16T10:06:19.616Z,56.70
2018-03-16T10:08:47.852Z,56.60
2018-03-16T10:11:16.113Z,56.70
2018-03-16T10:13:43.262Z,56.50
2018-03-16T10:16:10.389Z,56.50
2018-03-16T10:18:38.297Z,57.10
2018-03-16T10:21:05.818Z,56.50
2018-03-16T10:23:32.938Z,56.50
2018-03-16T10:28:29.190Z,56.50
2018-03-16T10:30:57.083Z,56.50
2018-03-16T10:33:24.952Z,56.50
2018-03-16T10:35:52.062Z,56.50
2018-03-16T10:38:20.321Z,56.50
2018-03-16T10:40:48.200Z,56.50
2018-03-16T10:43:16.065Z,56.50
2018-03-16T10:45:43.178Z,56.50
2018-03-16T10:48:10.287Z,56.50
2018-03-16T10:50:37.402Z,56.50
2018-03-16T10:53:04.724Z,56.40
2018-03-16T10:55:31.830Z,56.40
2018-03-16T10:57:58.943Z,56.40
2018-03-16T11:03:39.434Z,56.40
2018-03-16T11:06:07.357Z,56.90
2018-03-16T11:08:34.559Z,56.50
2018-03-16T11:11:02.665Z,57.00
2018-03-16T11:13:30.547Z,56.50
2018-03-16T11:15:57.669Z,56.50
2018-03-16T11:18:25.268Z,56.50
2018-03-16T11:20:53.179Z,57.00
2018-03-16T11:23:20.305Z,56.50
2018-03-16T11:25:48.556Z,56.40
2018-03-16T11:28:15.679Z,56.50
2018-03-16T11:30:43.351Z,56.50
2018-03-16T11:33:10.464Z,56.40
2018-03-16T11:35:37.970Z,56.30
2018-03-16T11:38:06.228Z,56.30
2018-03-16T11:40:33.343Z,56.30
2018-03-16T11:43:01.748Z,56.40
2018-03-16T11:45:28.866Z,56.40
2018-03-16T11:47:56.749Z,56.90
2018-03-16T11:50:24.269Z,56.40
2018-03-16T11:52:51.402Z,56.40
2018-03-16T11:55:18.500Z,56.40
2018-03-16T11:57:45.620Z,56.30
2018-03-16T12:00:12.726Z,56.30
2018-03-16T12:02:39.844Z,56.30
2018-03-16T12:05:06.951Z,56.30
2018-03-16T12:07:34.106Z,56.30
2018-03-16T12:10:01.208Z,56.30
2018-03-16T12:12:28.753Z,56.30
2018-03-16T12:14:55.882Z,56.30
2018-03-16T12:17:23.009Z,56.30
2018-03-16T12:19:50.886Z,56.90
2018-03-16T12:22:19.126Z,56.30
2018-03-16T12:24:46.221Z,56.30
2018-03-16T12:27:13.695Z,56.20
2018-03-16T12:29:40.829Z,56.20
2018-03-16T12:32:07.932Z,56.30
2018-03-16T12:34:36.191Z,56.30
2018-03-16T12:37:03.542Z,56.30
2018-03-16T12:39:30.679Z,56.20
2018-03-16T12:41:57.795Z,56.20
2018-03-16T12:44:26.051Z,56.20
2018-03-16T12:46:53.158Z,56.20
2018-03-16T12:49:21.059Z,57.30
2018-03-16T12:51:48.166Z,56.20
2018-03-16T12:54:15.316Z,56.30
2018-03-16T12:56:42.448Z,56.20
2018-03-16T12:59:09.583Z,56.20
2018-03-16T13:01:37.104Z,56.20
2018-03-16T13:04:04.644Z,56.20
2018-03-16T13:06:31.785Z,56.20
2018-03-16T13:08:58.908Z,56.20
2018-03-16T13:11:27.155Z,56.20
2018-03-16T13:13:55.081Z,56.20
2018-03-16T13:16:22.188Z,56.20
2018-03-16T13:18:50.062Z,56.70
2018-03-16T13:21:17.958Z,56.70
2018-03-16T13:23:45.056Z,56.20
2018-03-16T13:26:12.225Z,56.20
2018-03-16T13:28:39.329Z,56.20
2018-03-16T13:31:07.325Z,56.20
2018-03-16T13:33:34.442Z,56.20
2018-03-16T13:36:01.594Z,56.20
2018-03-16T13:38:28.703Z,56.20
2018-03-16T13:40:55.865Z,56.30
2018-03-16T13:43:24.115Z,56.20
2018-03-16T13:45:51.241Z,56.20
2018-03-16T13:48:18.351Z,56.20
2018-03-16T13:50:45.878Z,56.10
2018-03-16T13:55:42.160Z,56.10
2018-03-16T13:58:10.090Z,56.10
2018-03-16T14:00:38.006Z,56.70
2018-03-16T14:03:05.108Z,56.20
2018-03-16T14:05:32.229Z,56.10
2018-03-16T14:08:00.106Z,56.10
2018-03-16T14:10:27.997Z,56.20
2018-03-16T14:12:55.114Z,56.10
2018-03-16T14:15:22.988Z,56.60
2018-03-16T14:17:50.099Z,56.10
2018-03-16T14:20:17.988Z,56.00
2018-03-16T14:22:45.860Z,56.00
2018-03-16T14:25:14.097Z,56.10
2018-03-16T14:27:41.222Z,56.00
2018-03-16T14:30:08.330Z,56.00
2018-03-16T14:32:35.834Z,56.10
2018-03-16T14:35:03.592Z,56.00
2018-03-16T14:37:30.692Z,56.00
2018-03-16T14:39:57.799Z,56.10
2018-03-16T14:42:25.678Z,56.60
2018-03-16T14:44:53.554Z,56.00
2018-03-16T14:47:21.865Z,56.00
2018-03-16T14:49:48.997Z,56.00
2018-03-16T14:54:44.884Z,56.10
2018-03-16T14:57:12.797Z,56.50
2018-03-16T14:59:40.299Z,56.00
2018-03-16T15:02:07.455Z,56.00
2018-03-16T15:04:34.581Z,56.00
2018-03-16T15:07:01.800Z,56.00
2018-03-16T15:09:29.326Z,56.00
2018-03-16T15:11:57.576Z,55.90
2018-03-16T15:14:25.823Z,54.30
2018-03-16T15:16:52.953Z,55.50
2018-03-16T15:19:20.830Z,55.80
2018-03-16T15:21:47.996Z,55.70
2018-03-16T15:24:15.456Z,55.70
2018-03-16T15:26:43.703Z,55.70
2018-03-16T15:29:11.827Z,56.20
2018-03-16T15:31:39.765Z,55.70
2018-03-16T15:34:07.376Z,55.70
2018-03-16T15:36:34.491Z,55.60
2018-03-16T15:39:01.652Z,55.60
2018-03-16T15:41:30.256Z,56.10
2018-03-16T15:43:57.362Z,55.60
2018-03-16T15:46:24.486Z,55.70
2018-03-16T15:48:51.797Z,55.60
2018-03-16T15:51:19.303Z,55.60
2018-03-16T15:53:47.903Z,55.60
2018-03-16T15:58:45.374Z,55.70
2018-03-16T16:01:13.476Z,55.60
2018-03-16T16:03:42.247Z,56.10
2018-03-16T16:06:11.261Z,55.70
2018-03-16T16:08:40.604Z,56.10
2018-03-16T16:11:12.114Z,55.60
2018-03-16T16:13:51.772Z,56.10
2018-03-16T16:16:20.291Z,56.10
2018-03-16T16:18:47.853Z,55.60
2018-03-16T16:21:15.883Z,55.60
2018-03-16T16:23:44.244Z,55.60
2018-03-16T16:26:12.195Z,55.60
2018-03-16T16:31:10.132Z,55.70
2018-03-16T16:33:37.727Z,55.60
2018-03-16T16:36:05.603Z,55.60
2018-03-16T16:38:33.885Z,55.60
2018-03-16T16:41:01.851Z,55.60
2018-03-16T16:43:31.071Z,56.20
2018-03-16T16:45:58.843Z,55.70
2018-03-16T16:48:26.933Z,55.70
2018-03-16T16:50:54.677Z,55.70
2018-03-16T16:53:22.214Z,55.70
2018-03-16T16:55:50.644Z,55.70
2018-03-16T16:58:19.050Z,55.70
2018-03-16T17:00:46.729Z,55.70
2018-03-16T17:03:14.286Z,55.70
2018-03-16T17:05:42.143Z,55.70
2018-03-16T17:08:10.473Z,55.70
2018-03-16T17:10:39.480Z,56.30
2018-03-16T17:13:07.638Z,55.80
2018-03-16T17:15:35.958Z,55.70
2018-03-16T17:18:03.733Z,55.70
2018-03-16T17:20:32.545Z,55.60
2018-03-16T17:23:01.383Z,55.70
2018-03-16T17:25:28.723Z,55.70
2018-03-16T17:27:56.563Z,55.70
2018-03-16T17:30:25.565Z,55.70
2018-03-16T17:32:54.777Z,56.10
2018-03-16T17:37:52.953Z,55.60
2018-03-16T17:40:20.471Z,55.60
2018-03-16T17:42:48.351Z,55.60
2018-03-16T17:45:15.467Z,55.60
2018-03-16T17:50:11.362Z,55.60
2018-03-16T17:55:07.251Z,55.60
2018-03-16T17:57:34.348Z,55.60
2018-03-16T18:00:01.756Z,55.50
2018-03-16T18:02:29.001Z,55.50
2018-03-16T18:04:56.893Z,56.10
2018-03-16T18:07:25.513Z,55.60
2018-03-16T18:09:53.011Z,55.50
2018-03-16T18:12:20.156Z,55.60
2018-03-16T18:14:47.280Z,55.60
2018-03-16T18:17:15.197Z,56.10
2018-03-16T18:19:42.324Z,55.60
2018-03-16T18:22:09.868Z,55.60
2018-03-16T18:24:37.375Z,55.60
2018-03-16T18:27:04.959Z,55.60
2018-03-16T18:29:32.420Z,55.60
2018-03-16T18:31:59.615Z,55.50
2018-03-16T18:34:27.491Z,55.50
2018-03-16T18:36:54.632Z,55.60
2018-03-16T18:39:21.733Z,55.60
2018-03-16T18:41:48.930Z,55.60
2018-03-16T18:46:44.793Z,55.60
2018-03-16T18:49:12.294Z,55.50
2018-03-16T18:51:39.437Z,55.50
2018-03-16T18:56:37.489Z,55.40
2018-03-16T18:59:04.820Z,55.40
2018-03-16T19:01:31.983Z,55.50
2018-03-16T19:03:59.119Z,55.50
2018-03-16T19:06:26.511Z,55.50
2018-03-16T19:08:53.781Z,55.40
2018-03-16T19:11:21.755Z,55.40
2018-03-16T19:13:50.197Z,55.40
2018-03-16T19:16:18.743Z,55.40
2018-03-16T19:18:46.214Z,55.40
2018-03-16T19:21:14.711Z,55.40
2018-03-16T19:26:12.002Z,55.40
2018-03-16T19:28:40.670Z,55.40
2018-03-16T19:31:08.400Z,55.40
2018-03-16T19:33:36.310Z,55.40
2018-03-16T19:36:04.440Z,55.30
2018-03-16T19:38:32.619Z,55.40
2018-03-16T19:41:00.713Z,55.40
2018-03-16T19:43:29.287Z,55.30
2018-03-16T19:48:27.313Z,55.20
2018-03-16T19:50:54.791Z,55.30
2018-03-16T19:53:22.674Z,55.30
2018-03-16T19:55:51.028Z,55.30
2018-03-16T19:58:19.454Z,55.20
2018-03-16T20:05:48.793Z,55.70
2018-03-16T20:08:17.426Z,55.30
2018-03-16T20:10:47.195Z,55.30
2018-03-16T20:13:16.690Z,55.40
2018-03-16T20:15:45.525Z,55.30
2018-03-16T20:18:14.452Z,55.40
2018-03-16T20:20:44.805Z,55.30
2018-03-16T20:23:14.478Z,55.90
2018-03-16T20:28:12.941Z,55.40
2018-03-16T20:30:41.833Z,55.30
2018-03-16T20:33:11.351Z,55.30
2018-03-16T20:35:40.816Z,55.80
2018-03-16T20:40:38.387Z,55.40
2018-03-16T20:43:06.441Z,55.30
2018-03-16T20:45:34.671Z,55.30
2018-03-16T20:48:02.615Z,55.20
2018-03-16T20:50:30.681Z,55.20
2018-03-16T20:52:58.293Z,55.20
2018-03-16T20:55:27.198Z,55.20
2018-03-16T20:57:55.376Z,55.40
2018-03-16T21:00:23.197Z,55.20
2018-03-16T21:02:51.449Z,56.20
2018-03-16T21:05:19.149Z,55.30
2018-03-16T21:12:47.066Z,55.20
2018-03-16T21:15:15.558Z,55.20
2018-03-16T21:20:12.462Z,55.20
2018-03-16T21:22:39.622Z,55.20
2018-03-16T21:25:06.975Z,55.10
2018-03-16T21:27:34.436Z,55.30
2018-03-16T21:30:02.336Z,55.10
2018-03-16T21:32:29.518Z,55.20
2018-03-16T21:34:57.728Z,55.20
2018-03-16T21:37:25.680Z,55.20
2018-03-16T21:42:22.524Z,55.20
2018-03-16T21:44:49.900Z,55.20
2018-03-16T21:47:17.057Z,55.20
2018-03-16T21:49:44.618Z,55.20
2018-03-16T21:52:13.261Z,55.10
2018-03-16T21:57:09.549Z,55.10
2018-03-16T21:59:37.807Z,55.10
2018-03-16T22:04:33.738Z,55.10
2018-03-16T22:07:01.622Z,55.60
2018-03-16T22:09:29.890Z,55.10
2018-03-16T22:11:58.496Z,55.60
2018-03-16T22:14:26.366Z,55.60
2018-03-16T22:16:53.863Z,55.10
2018-03-16T22:19:22.473Z,55.10
2018-03-16T22:21:49.573Z,55.10
2018-03-16T22:24:16.673Z,55.00
2018-03-16T22:31:41.857Z,55.00
2018-03-16T22:34:09.741Z,55.00
2018-03-16T22:36:36.868Z,55.00
2018-03-16T22:39:04.200Z,55.00
2018-03-16T22:41:31.728Z,55.00
2018-03-16T22:46:28.365Z,55.00
2018-03-16T22:48:56.597Z,55.10
2018-03-16T22:51:24.485Z,55.60
2018-03-16T22:53:51.581Z,55.10
2018-03-16T22:56:18.721Z,55.00
2018-03-16T22:58:46.585Z,55.00
2018-03-16T23:01:14.476Z,55.00
2018-03-16T23:03:42.346Z,55.00
2018-03-16T23:06:09.469Z,55.00
2018-03-16T23:08:36.565Z,55.00
2018-03-16T23:11:04.312Z,55.10
2018-03-16T23:13:32.185Z,55.20
2018-03-16T23:15:59.308Z,55.10
2018-03-16T23:18:26.409Z,55.20
2018-03-16T23:20:53.533Z,55.20
2018-03-16T23:23:20.637Z,55.20
2018-03-16T23:25:48.533Z,55.60
2018-03-16T23:28:16.025Z,55.20
2018-03-16T23:30:43.890Z,55.00
2018-03-16T23:33:12.501Z,55.00
2018-03-16T23:35:41.081Z,55.00
2018-03-16T23:38:09.402Z,55.00
2018-03-16T23:40:37.265Z,54.90
2018-03-16T23:43:04.761Z,54.90
2018-03-16T23:45:31.865Z,55.00
2018-03-16T23:47:58.965Z,55.10
2018-03-16T23:50:27.338Z,55.20
2018-03-16T23:52:54.588Z,55.20
2018-03-16T23:55:22.453Z,55.70
2018-03-16T23:57:49.548Z,55.20
